sensor_id;sensor_type;location;lat;lon;timestamp;pressure;altitude;pressure_sealevel;temperature;humidity
51452;BME280;37521;52.020;-1.740;2023-01-28T00:02:08;101536.44;;;0.28;100.00
51452;BME280;37521;52.020;-1.740;2023-01-28T00:04:39;101528.59;;;0.26;100.00
51452;BME280;37521;52.020;-1.740;2023-01-28T00:07:07;101534.63;;;0.25;100.00
51452;BME280;37521;52.020;-1.740;2023-01-28T00:09:35;101536.34;;;0.23;100.00
51452;BME280;37521;52.020;-1.740;2023-01-28T00:12:05;101538.94;;;0.23;100.00
51452;BME280;37521;52.020;-1.740;2023-01-28T00:14:33;101538.03;;;0.21;100.00
51452;BME280;37521;52.020;-1.740;2023-01-28T00:17:04;101539.16;;;0.34;100.00
51452;BME280;37521;52.020;-1.740;2023-01-28T00:19:33;101533.44;;;0.51;100.00
51452;BME280;37521;52.020;-1.740;2023-01-28T00:22:02;101533.50;;;0.54;100.00
51452;BME280;37521;52.020;-1.740;2023-01-28T00:24:30;101545.66;;;0.56;100.00
51452;BME280;37521;52.020;-1.740;2023-01-28T00:26:58;101540.44;;;0.56;100.00
51452;BME280;37521;52.020;-1.740;2023-01-28T00:29:26;101536.06;;;0.53;100.00
51452;BME280;37521;52.020;-1.740;2023-01-28T00:31:55;101532.59;;;0.52;100.00
51452;BME280;37521;52.020;-1.740;2023-01-28T00:34:23;101526.53;;;0.53;100.00
51452;BME280;37521;52.020;-1.740;2023-01-28T00:36:53;101521.28;;;0.50;100.00
51452;BME280;37521;52.020;-1.740;2023-01-28T00:39:25;101521.25;;;0.47;100.00
51452;BME280;37521;52.020;-1.740;2023-01-28T00:41:53;101512.53;;;0.45;100.00
51452;BME280;37521;52.020;-1.740;2023-01-28T00:44:23;101516.84;;;0.45;100.00
51452;BME280;37521;52.020;-1.740;2023-01-28T00:46:51;101515.09;;;0.44;100.00
51452;BME280;37521;52.020;-1.740;2023-01-28T00:49:21;101514.22;;;0.42;100.00
51452;BME280;37521;52.020;-1.740;2023-01-28T00:51:49;101509.00;;;0.40;100.00
51452;BME280;37521;52.020;-1.740;2023-01-28T00:54:19;101505.47;;;0.38;100.00
51452;BME280;37521;52.020;-1.740;2023-01-28T00:56:48;101507.16;;;0.36;100.00
51452;BME280;37521;52.020;-1.740;2023-01-28T00:59:16;101514.06;;;0.34;100.00
51452;BME280;37521;52.020;-1.740;2023-01-28T01:01:46;101498.41;;;0.31;100.00
51452;BME280;37521;52.020;-1.740;2023-01-28T01:04:14;101499.22;;;0.29;100.00
51452;BME280;37521;52.020;-1.740;2023-01-28T01:06:52;101495.69;;;0.25;100.00
51452;BME280;37521;52.020;-1.740;2023-01-28T01:09:21;101490.41;;;0.20;100.00
51452;BME280;37521;52.020;-1.740;2023-01-28T01:11:50;101492.03;;;0.15;100.00
51452;BME280;37521;52.020;-1.740;2023-01-28T01:14:18;101492.81;;;0.11;100.00
51452;BME280;37521;52.020;-1.740;2023-01-28T01:16:46;101491.91;;;0.09;100.00
51452;BME280;37521;52.020;-1.740;2023-01-28T01:19:17;101490.97;;;0.06;100.00
51452;BME280;37521;52.020;-1.740;2023-01-28T01:21:45;101490.91;;;0.03;100.00
51452;BME280;37521;52.020;-1.740;2023-01-28T01:24:17;101490.78;;;-0.04;100.00
51452;BME280;37521;52.020;-1.740;2023-01-28T01:26:46;101484.75;;;-0.03;100.00
51452;BME280;37521;52.020;-1.740;2023-01-28T01:29:15;101483.88;;;-0.03;100.00
51452;BME280;37521;52.020;-1.740;2023-01-28T01:31:43;101482.16;;;-0.03;100.00
51452;BME280;37521;52.020;-1.740;2023-01-28T01:34:13;101479.56;;;-0.03;100.00
51452;BME280;37521;52.020;-1.740;2023-01-28T01:36:41;101482.16;;;-0.03;100.00
51452;BME280;37521;52.020;-1.740;2023-01-28T01:39:11;101475.25;;;-0.01;100.00
51452;BME280;37521;52.020;-1.740;2023-01-28T01:41:39;101477.84;;;-0.01;100.00
51452;BME280;37521;52.020;-1.740;2023-01-28T01:47:10;101483.16;;;0.06;100.00
51452;BME280;37521;52.020;-1.740;2023-01-28T01:49:40;101474.59;;;0.08;100.00
51452;BME280;37521;52.020;-1.740;2023-01-28T01:52:11;101473.75;;;0.11;100.00
51452;BME280;37521;52.020;-1.740;2023-01-28T01:54:42;101472.88;;;0.10;100.00
51452;BME280;37521;52.020;-1.740;2023-01-28T01:57:13;101472.94;;;0.13;100.00
51452;BME280;37521;52.020;-1.740;2023-01-28T01:59:43;101486.84;;;0.15;100.00
51452;BME280;37521;52.020;-1.740;2023-01-28T02:02:13;101490.31;;;0.16;100.00
51452;BME280;37521;52.020;-1.740;2023-01-28T02:04:43;101494.66;;;0.17;100.00
51452;BME280;37521;52.020;-1.740;2023-01-28T02:07:15;101494.69;;;0.18;100.00
51452;BME280;37521;52.020;-1.740;2023-01-28T02:09:45;101497.34;;;0.21;100.00
51452;BME280;37521;52.020;-1.740;2023-01-28T02:12:16;101500.00;;;0.24;100.00
51452;BME280;37521;52.020;-1.740;2023-01-28T02:14:48;101505.19;;;0.23;100.00
51452;BME280;37521;52.020;-1.740;2023-01-28T02:17:20;101512.94;;;0.21;100.00
51452;BME280;37521;52.020;-1.740;2023-01-28T02:19:52;101508.53;;;0.19;100.00
51452;BME280;37521;52.020;-1.740;2023-01-28T02:22:45;101507.66;;;0.18;100.00
51452;BME280;37521;52.020;-1.740;2023-01-28T02:25:28;101503.34;;;0.19;100.00
51452;BME280;37521;52.020;-1.740;2023-01-28T02:28:12;101505.09;;;0.20;100.00
51452;BME280;37521;52.020;-1.740;2023-01-28T02:30:46;101499.09;;;0.22;100.00
51452;BME280;37521;52.020;-1.740;2023-01-28T02:33:18;101499.13;;;0.24;100.00
51452;BME280;37521;52.020;-1.740;2023-01-28T02:35:52;101498.34;;;0.28;100.00
51452;BME280;37521;52.020;-1.740;2023-01-28T02:38:25;101497.50;;;0.29;100.00
51452;BME280;37521;52.020;-1.740;2023-01-28T02:41:00;101502.72;;;0.31;100.00
51452;BME280;37521;52.020;-1.740;2023-01-28T02:43:36;101506.22;;;0.33;100.00
51452;BME280;37521;52.020;-1.740;2023-01-28T02:46:15;101512.34;;;0.36;100.00
51452;BME280;37521;52.020;-1.740;2023-01-28T02:49:04;101512.41;;;0.39;100.00
51452;BME280;37521;52.020;-1.740;2023-01-28T02:51:42;101522.78;;;0.39;100.00
51452;BME280;37521;52.020;-1.740;2023-01-28T02:54:21;101521.06;;;0.38;100.00
51452;BME280;37521;52.020;-1.740;2023-01-28T02:56:58;101522.78;;;0.39;100.00
51452;BME280;37521;52.020;-1.740;2023-01-28T02:59:39;101515.06;;;0.41;100.00
51452;BME280;37521;52.020;-1.740;2023-01-28T03:02:14;101515.94;;;0.41;100.00
51452;BME280;37521;52.020;-1.740;2023-01-28T03:04:50;101522.00;;;0.42;100.00
51452;BME280;37521;52.020;-1.740;2023-01-28T03:07:22;101507.28;;;0.42;100.00
51452;BME280;37521;52.020;-1.740;2023-01-28T03:09:52;101515.94;;;0.41;100.00
51452;BME280;37521;52.020;-1.740;2023-01-28T03:12:26;101504.72;;;0.44;100.00
51452;BME280;37521;52.020;-1.740;2023-01-28T03:15:16;101492.59;;;0.46;100.00
51452;BME280;37521;52.020;-1.740;2023-01-28T03:18:06;101496.94;;;0.45;100.00
51452;BME280;37521;52.020;-1.740;2023-01-28T03:20:56;101486.53;;;0.45;100.00
51452;BME280;37521;52.020;-1.740;2023-01-28T03:23:49;101479.66;;;0.47;100.00
51452;BME280;37521;52.020;-1.740;2023-01-28T03:26:42;101484.88;;;0.47;100.00
51452;BME280;37521;52.020;-1.740;2023-01-28T03:29:30;101472.66;;;0.45;100.00
51452;BME280;37521;52.020;-1.740;2023-01-28T03:32:22;101470.94;;;0.45;100.00
51452;BME280;37521;52.020;-1.740;2023-01-28T03:35:10;101481.34;;;0.45;100.00
51452;BME280;37521;52.020;-1.740;2023-01-28T03:37:58;101482.94;;;0.39;100.00
51452;BME280;37521;52.020;-1.740;2023-01-28T03:40:27;101492.44;;;0.35;100.00
51452;BME280;37521;52.020;-1.740;2023-01-28T03:42:55;101486.25;;;0.30;100.00
51452;BME280;37521;52.020;-1.740;2023-01-28T03:45:31;101490.50;;;0.26;100.00
51452;BME280;37521;52.020;-1.740;2023-01-28T03:48:03;101487.88;;;0.25;100.00
51452;BME280;37521;52.020;-1.740;2023-01-28T03:50:32;101487.84;;;0.22;100.00
51452;BME280;37521;52.020;-1.740;2023-01-28T03:53:01;101487.84;;;0.22;100.00
51452;BME280;37521;52.020;-1.740;2023-01-28T03:55:48;101481.69;;;0.18;100.00
51452;BME280;37521;52.020;-1.740;2023-01-28T03:58:17;101475.59;;;0.16;100.00
51452;BME280;37521;52.020;-1.740;2023-01-28T04:00:46;101478.13;;;0.13;100.00
51452;BME280;37521;52.020;-1.740;2023-01-28T04:03:18;101473.75;;;0.11;100.00
51452;BME280;37521;52.020;-1.740;2023-01-28T04:05:58;101473.72;;;0.08;100.00
51452;BME280;37521;52.020;-1.740;2023-01-28T04:08:40;101474.53;;;0.07;100.00
51452;BME280;37521;52.020;-1.740;2023-01-28T04:11:28;101479.69;;;0.04;100.00
51452;BME280;37521;52.020;-1.740;2023-01-28T04:13:59;101471.88;;;0.04;100.00
51452;BME280;37521;52.020;-1.740;2023-01-28T04:16:40;101479.66;;;0.02;100.00
51452;BME280;37521;52.020;-1.740;2023-01-28T04:19:10;101476.19;;;0.02;100.00
51452;BME280;37521;52.020;-1.740;2023-01-28T04:21:40;101470.06;;;-0.01;100.00
51452;BME280;37521;52.020;-1.740;2023-01-28T04:24:09;101477.81;;;-0.04;100.00
51452;BME280;37521;52.020;-1.740;2023-01-28T04:26:38;101482.09;;;-0.06;100.00
51452;BME280;37521;52.020;-1.740;2023-01-28T04:29:07;101489.88;;;-0.06;100.00
51452;BME280;37521;52.020;-1.740;2023-01-28T04:31:36;101492.50;;;-0.06;100.00
51452;BME280;37521;52.020;-1.740;2023-01-28T04:34:27;101497.53;;;-0.12;100.00
51452;BME280;37521;52.020;-1.740;2023-01-28T04:37:06;101494.03;;;-0.14;100.00
51452;BME280;37521;52.020;-1.740;2023-01-28T04:39:52;101502.66;;;-0.15;100.00
51452;BME280;37521;52.020;-1.740;2023-01-28T04:42:39;101495.75;;;-0.14;100.00
51452;BME280;37521;52.020;-1.740;2023-01-28T04:45:28;101494.03;;;-0.14;100.00
51452;BME280;37521;52.020;-1.740;2023-01-28T04:48:02;101499.22;;;-0.14;100.00
51452;BME280;37521;52.020;-1.740;2023-01-28T04:50:54;101497.47;;;-0.15;100.00
51452;BME280;37521;52.020;-1.740;2023-01-28T04:53:44;101494.84;;;-0.16;100.00
51452;BME280;37521;52.020;-1.740;2023-01-28T04:56:28;101492.09;;;-0.24;100.00
51452;BME280;37521;52.020;-1.740;2023-01-28T04:58:56;101483.31;;;-0.29;100.00
51452;BME280;37521;52.020;-1.740;2023-01-28T05:01:24;101481.53;;;-0.33;100.00
51452;BME280;37521;52.020;-1.740;2023-01-28T05:03:53;101486.72;;;-0.33;100.00
51452;BME280;37521;52.020;-1.740;2023-01-28T05:06:26;101496.25;;;-0.32;100.00
51452;BME280;37521;52.020;-1.740;2023-01-28T05:08:58;101493.72;;;-0.28;100.00
51452;BME280;37521;52.020;-1.740;2023-01-28T05:11:28;101488.59;;;-0.26;100.00
51452;BME280;37521;52.020;-1.740;2023-01-28T05:14:01;101487.75;;;-0.25;100.00
51452;BME280;37521;52.020;-1.740;2023-01-28T05:16:40;101486.03;;;-0.24;100.00
51452;BME280;37521;52.020;-1.740;2023-01-28T05:19:10;101474.78;;;-0.25;100.00
51452;BME280;37521;52.020;-1.740;2023-01-28T05:21:42;101479.09;;;-0.25;100.00
51452;BME280;37521;52.020;-1.740;2023-01-28T05:24:29;101473.03;;;-0.26;100.00
51452;BME280;37521;52.020;-1.740;2023-01-28T05:26:57;101484.28;;;-0.25;100.00
51452;BME280;37521;52.020;-1.740;2023-01-28T05:29:25;101489.47;;;-0.25;100.00
51452;BME280;37521;52.020;-1.740;2023-01-28T05:31:54;101478.22;;;-0.26;100.00
51452;BME280;37521;52.020;-1.740;2023-01-28T05:34:22;101475.66;;;-0.24;100.00
51452;BME280;37521;52.020;-1.740;2023-01-28T05:36:53;101486.91;;;-0.24;100.00
51452;BME280;37521;52.020;-1.740;2023-01-28T05:39:30;101488.66;;;-0.23;100.00
51452;BME280;37521;52.020;-1.740;2023-01-28T05:41:58;101493.00;;;-0.22;100.00
51452;BME280;37521;52.020;-1.740;2023-01-28T05:44:28;101486.91;;;-0.24;100.00
51452;BME280;37521;52.020;-1.740;2023-01-28T05:47:15;101475.69;;;-0.21;100.00
51452;BME280;37521;52.020;-1.740;2023-01-28T05:50:02;101486.94;;;-0.21;100.00
51452;BME280;37521;52.020;-1.740;2023-01-28T05:52:38;101482.69;;;-0.19;100.00
51452;BME280;37521;52.020;-1.740;2023-01-28T05:55:13;101481.00;;;-0.17;100.00
51452;BME280;37521;52.020;-1.740;2023-01-28T05:57:41;101483.63;;;-0.14;100.00
51452;BME280;37521;52.020;-1.740;2023-01-28T06:00:13;101482.84;;;-0.11;100.00
51452;BME280;37521;52.020;-1.740;2023-01-28T06:02:43;101487.22;;;-0.09;100.00
51452;BME280;37521;52.020;-1.740;2023-01-28T06:05:14;101488.97;;;-0.08;100.00
51452;BME280;37521;52.020;-1.740;2023-01-28T06:07:45;101484.72;;;-0.04;100.00
51452;BME280;37521;52.020;-1.740;2023-01-28T06:10:15;101494.28;;;-0.02;100.00
51452;BME280;37521;52.020;-1.740;2023-01-28T06:12:45;101489.16;;;0.02;100.00
51452;BME280;37521;52.020;-1.740;2023-01-28T06:15:32;101487.44;;;0.02;100.00
51452;BME280;37521;52.020;-1.740;2023-01-28T06:18:04;101485.75;;;0.06;100.00
51452;BME280;37521;52.020;-1.740;2023-01-28T06:20:33;101488.47;;;0.10;100.00
51452;BME280;37521;52.020;-1.740;2023-01-28T06:23:03;101483.31;;;0.13;100.00
51452;BME280;37521;52.020;-1.740;2023-01-28T06:25:31;101489.50;;;0.18;100.00
51452;BME280;37521;52.020;-1.740;2023-01-28T06:28:05;101483.53;;;0.22;100.00
51452;BME280;37521;52.020;-1.740;2023-01-28T06:30:33;101491.41;;;0.27;100.00
51452;BME280;37521;52.020;-1.740;2023-01-28T06:33:01;101498.41;;;0.31;100.00
51452;BME280;37521;52.020;-1.740;2023-01-28T06:35:29;101500.22;;;0.35;100.00
51452;BME280;37521;52.020;-1.740;2023-01-28T06:37:58;101501.97;;;0.36;100.00
51452;BME280;37521;52.020;-1.740;2023-01-28T06:40:27;101509.81;;;0.39;100.00
51452;BME280;37521;52.020;-1.740;2023-01-28T06:42:55;101515.09;;;0.42;100.00
51452;BME280;37521;52.020;-1.740;2023-01-28T06:45:24;101519.44;;;0.43;100.00
51452;BME280;37521;52.020;-1.740;2023-01-28T06:47:52;101514.22;;;0.42;100.00
51452;BME280;37521;52.020;-1.740;2023-01-28T06:50:20;101501.19;;;0.40;100.00
51452;BME280;37521;52.020;-1.740;2023-01-28T06:52:48;101507.25;;;0.41;100.00
51452;BME280;37521;52.020;-1.740;2023-01-28T06:55:16;101504.59;;;0.38;100.00
51452;BME280;37521;52.020;-1.740;2023-01-28T06:57:46;101503.72;;;0.37;100.00
51452;BME280;37521;52.020;-1.740;2023-01-28T07:00:15;101507.16;;;0.36;100.00
51452;BME280;37521;52.020;-1.740;2023-01-28T07:02:44;101507.09;;;0.33;100.00
51452;BME280;37521;52.020;-1.740;2023-01-28T07:05:12;101500.97;;;0.30;100.00
51452;BME280;37521;52.020;-1.740;2023-01-28T07:07:40;101505.28;;;0.29;100.00
51452;BME280;37521;52.020;-1.740;2023-01-28T07:10:09;101505.22;;;0.26;100.00
51452;BME280;37521;52.020;-1.740;2023-01-28T07:12:38;101506.06;;;0.25;100.00
51452;BME280;37521;52.020;-1.740;2023-01-28T07:15:08;101496.50;;;0.22;100.00
51452;BME280;37521;52.020;-1.740;2023-01-28T07:17:38;101498.16;;;0.19;100.00
51452;BME280;37521;52.020;-1.740;2023-01-28T07:20:10;101492.97;;;0.19;100.00
51452;BME280;37521;52.020;-1.740;2023-01-28T07:22:40;101493.81;;;0.18;100.00
51452;BME280;37521;52.020;-1.740;2023-01-28T07:25:10;101489.47;;;0.17;100.00
51452;BME280;37521;52.020;-1.740;2023-01-28T07:27:38;101489.50;;;0.18;100.00
51452;BME280;37521;52.020;-1.740;2023-01-28T07:30:09;101502.47;;;0.18;100.00
51452;BME280;37521;52.020;-1.740;2023-01-28T07:32:37;101506.78;;;0.18;100.00
51452;BME280;37521;52.020;-1.740;2023-01-28T07:35:06;101506.81;;;0.19;100.00
51452;BME280;37521;52.020;-1.740;2023-01-28T07:37:34;101512.06;;;0.21;100.00
51452;BME280;37521;52.020;-1.740;2023-01-28T07:40:03;101512.09;;;0.22;100.00
51452;BME280;37521;52.020;-1.740;2023-01-28T07:42:31;101515.56;;;0.23;100.00
51452;BME280;37521;52.020;-1.740;2023-01-28T07:45:04;101515.47;;;0.20;100.00
51452;BME280;37521;52.020;-1.740;2023-01-28T07:47:33;101509.47;;;0.21;100.00
51452;BME280;37521;52.020;-1.740;2023-01-28T07:50:02;101512.88;;;0.20;100.00
51452;BME280;37521;52.020;-1.740;2023-01-28T07:52:30;101508.53;;;0.19;100.00
51452;BME280;37521;52.020;-1.740;2023-01-28T07:55:04;101506.78;;;0.18;100.00
51452;BME280;37521;52.020;-1.740;2023-01-28T07:57:32;101506.78;;;0.18;100.00
51452;BME280;37521;52.020;-1.740;2023-01-28T08:00:01;101519.00;;;0.22;100.00
51452;BME280;37521;52.020;-1.740;2023-01-28T08:02:39;101514.72;;;0.25;100.00
51452;BME280;37521;52.020;-1.740;2023-01-28T08:05:07;101521.72;;;0.28;100.00
51452;BME280;37521;52.020;-1.740;2023-01-28T08:07:36;101520.03;;;0.30;100.00
51452;BME280;37521;52.020;-1.740;2023-01-28T08:10:05;101524.41;;;0.33;100.00
51452;BME280;37521;52.020;-1.740;2023-01-28T08:12:33;101528.78;;;0.34;100.00
51452;BME280;37521;52.020;-1.740;2023-01-28T08:15:02;101536.59;;;0.35;100.00
51452;BME280;37521;52.020;-1.740;2023-01-28T08:17:31;101543.53;;;0.36;100.00
51452;BME280;37521;52.020;-1.740;2023-01-28T08:20:00;101539.22;;;0.37;100.00
51452;BME280;37521;52.020;-1.740;2023-01-28T08:22:29;101546.13;;;0.36;100.00
51452;BME280;37521;52.020;-1.740;2023-01-28T08:24:57;101552.19;;;0.35;100.00
51452;BME280;37521;52.020;-1.740;2023-01-28T08:27:25;101553.94;;;0.36;100.00
51452;BME280;37521;52.020;-1.740;2023-01-28T08:29:53;101543.53;;;0.36;100.00
51452;BME280;37521;52.020;-1.740;2023-01-28T08:32:22;101546.16;;;0.38;100.00
51452;BME280;37521;52.020;-1.740;2023-01-28T08:34:50;101566.97;;;0.39;100.00
51452;BME280;37521;52.020;-1.740;2023-01-28T08:37:20;101562.69;;;0.41;100.00
51452;BME280;37521;52.020;-1.740;2023-01-28T08:39:48;101562.72;;;0.43;100.00
51452;BME280;37521;52.020;-1.740;2023-01-28T08:42:17;101568.81;;;0.45;100.00
51452;BME280;37521;52.020;-1.740;2023-01-28T08:44:45;101569.78;;;0.48;100.00
51452;BME280;37521;52.020;-1.740;2023-01-28T08:47:14;101571.56;;;0.52;100.00
51452;BME280;37521;52.020;-1.740;2023-01-28T08:49:42;101555.13;;;0.53;100.00
51452;BME280;37521;52.020;-1.740;2023-01-28T08:52:10;101556.91;;;0.56;100.00
51452;BME280;37521;52.020;-1.740;2023-01-28T08:54:40;101561.28;;;0.59;100.00
51452;BME280;37521;52.020;-1.740;2023-01-28T08:57:08;101550.97;;;0.62;100.00
51452;BME280;37521;52.020;-1.740;2023-01-28T08:59:36;101558.88;;;0.68;100.00
51452;BME280;37521;52.020;-1.740;2023-01-28T09:02:12;101570.28;;;0.76;100.00
51452;BME280;37521;52.020;-1.740;2023-01-28T09:04:56;101559.06;;;0.78;100.00
51452;BME280;37521;52.020;-1.740;2023-01-28T09:07:25;101556.56;;;0.83;100.00
51452;BME280;37521;52.020;-1.740;2023-01-28T09:09:54;101552.28;;;0.87;100.00
51452;BME280;37521;52.020;-1.740;2023-01-28T09:12:23;101540.25;;;0.93;100.00
51452;BME280;37521;52.020;-1.740;2023-01-28T09:14:51;101532.53;;;0.96;100.00
51452;BME280;37521;52.020;-1.740;2023-01-28T09:17:20;101531.75;;;1.02;100.00
51452;BME280;37521;52.020;-1.740;2023-01-28T09:19:48;101531.78;;;1.03;100.00
51452;BME280;37521;52.020;-1.740;2023-01-28T09:22:17;101531.03;;;1.11;100.00
51452;BME280;37521;52.020;-1.740;2023-01-28T09:24:45;101517.28;;;1.18;100.00
51452;BME280;37521;52.020;-1.740;2023-01-28T09:27:15;101516.53;;;1.26;100.00
51452;BME280;37521;52.020;-1.740;2023-01-28T09:29:44;101514.06;;;1.34;100.00
51452;BME280;37521;52.020;-1.740;2023-01-28T09:32:12;101512.47;;;1.42;100.00
51452;BME280;37521;52.020;-1.740;2023-01-28T09:34:40;101503.88;;;1.49;100.00
51452;BME280;37521;52.020;-1.740;2023-01-28T09:37:10;101497.03;;;1.56;100.00
51452;BME280;37521;52.020;-1.740;2023-01-28T09:39:38;101479.78;;;1.62;100.00
51452;BME280;37521;52.020;-1.740;2023-01-28T09:42:23;101485.06;;;1.69;100.00
51452;BME280;37521;52.020;-1.740;2023-01-28T09:45:01;101472.13;;;1.75;100.00
51452;BME280;37521;52.020;-1.740;2023-01-28T09:47:38;101485.25;;;1.81;100.00
51452;BME280;37521;52.020;-1.740;2023-01-28T09:50:11;101487.88;;;1.85;100.00
51452;BME280;37521;52.020;-1.740;2023-01-28T09:52:42;101488.81;;;1.89;100.00
51452;BME280;37521;52.020;-1.740;2023-01-28T09:55:17;101494.03;;;1.89;100.00
51452;BME280;37521;52.020;-1.740;2023-01-28T09:57:50;101494.03;;;1.92;100.00
51452;BME280;37521;52.020;-1.740;2023-01-28T10:00:23;101495.78;;;1.93;100.00
51452;BME280;37521;52.020;-1.740;2023-01-28T10:03:04;101494.97;;;1.96;100.00
51452;BME280;37521;52.020;-1.740;2023-01-28T10:05:43;101489.78;;;1.99;100.00
51452;BME280;37521;52.020;-1.740;2023-01-28T10:08:26;101492.47;;;2.03;100.00
51452;BME280;37521;52.020;-1.740;2023-01-28T10:11:04;101488.13;;;2.07;100.00
51452;BME280;37521;52.020;-1.740;2023-01-28T10:13:44;101480.41;;;2.11;100.00
51452;BME280;37521;52.020;-1.740;2023-01-28T10:16:20;101477.84;;;2.14;100.00
51452;BME280;37521;52.020;-1.740;2023-01-28T10:18:54;101461.38;;;2.18;100.00
51452;BME280;37521;52.020;-1.740;2023-01-28T10:21:27;101470.97;;;2.23;100.00
51452;BME280;37521;52.020;-1.740;2023-01-28T10:24:00;101470.13;;;2.27;100.00
51452;BME280;37521;52.020;-1.740;2023-01-28T10:26:32;101472.78;;;2.30;100.00
51452;BME280;37521;52.020;-1.740;2023-01-28T10:29:10;101478.00;;;2.31;100.00
51452;BME280;37521;52.020;-1.740;2023-01-28T10:31:46;101479.75;;;2.32;100.00
51452;BME280;37521;52.020;-1.740;2023-01-28T10:34:18;101483.28;;;2.36;100.00
51452;BME280;37521;52.020;-1.740;2023-01-28T10:36:47;101492.91;;;2.41;100.00
51452;BME280;37521;52.020;-1.740;2023-01-28T10:39:18;101505.97;;;2.46;100.00
51452;BME280;37521;52.020;-1.740;2023-01-28T10:41:47;101509.50;;;2.50;100.00
51452;BME280;37521;52.020;-1.740;2023-01-28T10:44:31;101505.16;;;2.50;100.00
51452;BME280;37521;52.020;-1.740;2023-01-28T10:47:08;101496.47;;;2.51;100.00
51452;BME280;37521;52.020;-1.740;2023-01-28T10:49:41;101496.53;;;2.54;100.00
51452;BME280;37521;52.020;-1.740;2023-01-28T10:52:11;101494.78;;;2.56;100.00
51452;BME280;37521;52.020;-1.740;2023-01-28T10:54:40;101496.56;;;2.60;100.00
51452;BME280;37521;52.020;-1.740;2023-01-28T10:57:11;101506.19;;;2.66;100.00
51452;BME280;37521;52.020;-1.740;2023-01-28T10:59:42;101501.84;;;2.66;100.00
51452;BME280;37521;52.020;-1.740;2023-01-28T11:02:30;101501.03;;;2.70;100.00
51452;BME280;37521;52.020;-1.740;2023-01-28T11:05:06;101507.13;;;2.72;100.00
51452;BME280;37521;52.020;-1.740;2023-01-28T11:07:34;101499.34;;;2.76;100.00
51452;BME280;37521;52.020;-1.740;2023-01-28T11:10:25;101492.38;;;2.76;100.00
51452;BME280;37521;52.020;-1.740;2023-01-28T11:12:54;101486.25;;;2.72;100.00
51452;BME280;37521;52.020;-1.740;2023-01-28T11:15:25;101487.13;;;2.73;100.00
51452;BME280;37521;52.020;-1.740;2023-01-28T11:17:56;101486.25;;;2.72;100.00
51452;BME280;37521;52.020;-1.740;2023-01-28T11:20:28;101491.50;;;2.76;100.00
51452;BME280;37521;52.020;-1.740;2023-01-28T11:22:58;101486.31;;;2.79;100.00
51452;BME280;37521;52.020;-1.740;2023-01-28T11:25:29;101484.56;;;2.81;100.00
51452;BME280;37521;52.020;-1.740;2023-01-28T11:27:59;101488.97;;;2.82;100.00
51452;BME280;37521;52.020;-1.740;2023-01-28T11:30:30;101491.56;;;2.82;100.00
51452;BME280;37521;52.020;-1.740;2023-01-28T11:33:04;101489.84;;;2.84;100.00
51452;BME280;37521;52.020;-1.740;2023-01-28T11:35:35;101482.91;;;2.86;100.00
51452;BME280;37521;52.020;-1.740;2023-01-28T11:38:17;101475.94;;;2.85;100.00
51452;BME280;37521;52.020;-1.740;2023-01-28T11:40:49;101468.94;;;2.81;100.00
51452;BME280;37521;52.020;-1.740;2023-01-28T11:43:18;101477.59;;;2.77;100.00
51452;BME280;37521;52.020;-1.740;2023-01-28T11:45:56;101478.47;;;2.76;100.00
51452;BME280;37521;52.020;-1.740;2023-01-28T11:48:37;101484.56;;;2.76;100.00
51452;BME280;37521;52.020;-1.740;2023-01-28T11:51:23;101485.44;;;2.77;100.00
51452;BME280;37521;52.020;-1.740;2023-01-28T11:54:04;101486.31;;;2.79;100.00
51452;BME280;37521;52.020;-1.740;2023-01-28T11:56:48;101488.06;;;2.80;100.00
51452;BME280;37521;52.020;-1.740;2023-01-28T11:59:30;101500.22;;;2.81;100.00
51452;BME280;37521;52.020;-1.740;2023-01-28T12:02:12;101495.00;;;2.81;100.00
51452;BME280;37521;52.020;-1.740;2023-01-28T12:04:55;101502.00;;;2.82;100.00
51452;BME280;37521;52.020;-1.740;2023-01-28T12:07:34;101503.75;;;2.86;100.00
51452;BME280;37521;52.020;-1.740;2023-01-28T12:10:12;101489.91;;;2.90;100.00
51452;BME280;37521;52.020;-1.740;2023-01-28T12:13:01;101487.28;;;2.91;100.00
51452;BME280;37521;52.020;-1.740;2023-01-28T12:15:53;101489.91;;;2.90;100.00
51452;BME280;37521;52.020;-1.740;2023-01-28T12:18:41;101479.47;;;2.91;100.00
51452;BME280;37521;52.020;-1.740;2023-01-28T12:21:22;101478.59;;;2.92;100.00
51452;BME280;37521;52.020;-1.740;2023-01-28T12:24:05;101477.78;;;2.96;100.00
51452;BME280;37521;52.020;-1.740;2023-01-28T12:26:43;101480.38;;;2.96;100.00
51452;BME280;37521;52.020;-1.740;2023-01-28T12:29:24;101469.94;;;2.96;100.00
51452;BME280;37521;52.020;-1.740;2023-01-28T12:32:08;101455.19;;;2.98;100.00
51452;BME280;37521;52.020;-1.740;2023-01-28T12:34:59;101457.78;;;2.97;100.00
51452;BME280;37521;52.020;-1.740;2023-01-28T12:37:44;101465.56;;;2.94;100.00
51452;BME280;37521;52.020;-1.740;2023-01-28T12:40:33;101457.72;;;2.92;100.00
51452;BME280;37521;52.020;-1.740;2023-01-28T12:43:10;101464.69;;;2.89;100.00
51452;BME280;37521;52.020;-1.740;2023-01-28T12:45:44;101466.38;;;2.85;100.00
51452;BME280;37521;52.020;-1.740;2023-01-28T12:48:18;101462.03;;;2.86;100.00
51452;BME280;37521;52.020;-1.740;2023-01-28T12:50:53;101455.94;;;2.84;100.00
51452;BME280;37521;52.020;-1.740;2023-01-28T12:53:26;101455.06;;;2.82;100.00
51452;BME280;37521;52.020;-1.740;2023-01-28T12:55:59;101452.44;;;2.82;100.00
51452;BME280;37521;52.020;-1.740;2023-01-28T12:58:37;101449.84;;;2.82;100.00
51452;BME280;37521;52.020;-1.740;2023-01-28T13:01:09;101445.50;;;2.85;100.00
51452;BME280;37521;52.020;-1.740;2023-01-28T13:03:48;101449.91;;;2.94;100.00
51452;BME280;37521;52.020;-1.740;2023-01-28T13:06:23;101441.25;;;2.98;100.00
51452;BME280;37521;52.020;-1.740;2023-01-28T13:08:59;101432.56;;;2.99;100.00
51452;BME280;37521;52.020;-1.740;2023-01-28T13:11:33;101436.09;;;3.01;100.00
51452;BME280;37521;52.020;-1.740;2023-01-28T13:14:02;101426.47;;;2.98;100.00